createdAt,value
2019-03-09T00:01:18.320Z,9.40
2019-03-09T00:03:47.511Z,7.87
2019-03-09T00:06:17.017Z,10.33
2019-03-09T00:08:46.217Z,6.77
2019-03-09T00:11:15.414Z,6.77
2019-03-09T00:13:44.597Z,7.00
2019-03-09T00:16:13.806Z,5.43
2019-03-09T00:18:43.025Z,5.90
2019-03-09T00:21:12.204Z,4.83
2019-03-09T00:23:49.141Z,8.27
2019-03-09T00:26:32.232Z,10.53
2019-03-09T00:29:05.974Z,6.07
2019-03-09T00:31:39.901Z,6.80
2019-03-09T00:34:09.087Z,6.23
2019-03-09T00:36:38.310Z,3.80
2019-03-09T00:39:07.522Z,9.77
2019-03-09T00:41:36.690Z,6.13
2019-03-09T00:44:05.886Z,5.00
2019-03-09T00:46:35.065Z,7.00
2019-03-09T00:49:04.259Z,6.47
2019-03-09T00:51:33.496Z,7.27
2019-03-09T00:54:02.659Z,6.97
2019-03-09T00:56:31.860Z,5.97
2019-03-09T00:59:01.058Z,6.63
2019-03-09T01:01:30.240Z,4.13
2019-03-09T01:03:59.453Z,6.63
2019-03-09T01:06:28.634Z,6.67
2019-03-09T01:08:57.844Z,8.23
2019-03-09T01:11:27.030Z,5.67
2019-03-09T01:13:56.239Z,6.50
2019-03-09T01:16:25.415Z,5.73
2019-03-09T01:18:54.625Z,8.23
2019-03-09T01:21:23.808Z,5.90
2019-03-09T01:23:53.025Z,10.33
2019-03-09T01:26:22.201Z,7.40
2019-03-09T01:28:51.407Z,6.20
2019-03-09T01:31:20.649Z,7.13
2019-03-09T01:33:49.870Z,4.33
2019-03-09T01:36:19.048Z,6.07
2019-03-09T01:38:48.263Z,5.27
2019-03-09T01:41:17.439Z,6.43
2019-03-09T01:43:46.632Z,6.60
2019-03-09T01:46:15.814Z,6.23
2019-03-09T01:48:45.012Z,5.97
2019-03-09T01:51:14.254Z,7.33
2019-03-09T01:53:43.451Z,5.47
2019-03-09T01:56:12.649Z,7.07
2019-03-09T01:58:41.883Z,8.57
2019-03-09T02:01:11.068Z,7.77
2019-03-09T02:03:40.266Z,4.93
2019-03-09T02:06:09.458Z,7.10
2019-03-09T02:08:38.732Z,6.07
2019-03-09T02:11:07.908Z,6.53
2019-03-09T02:13:37.128Z,6.67
2019-03-09T02:16:06.306Z,6.83
2019-03-09T02:18:35.500Z,8.43
2019-03-09T02:21:04.682Z,5.80
2019-03-09T02:23:33.900Z,7.83
2019-03-09T02:26:03.100Z,5.93
2019-03-09T02:28:32.294Z,5.37
2019-03-09T02:31:01.495Z,7.17
2019-03-09T02:33:30.711Z,7.50
2019-03-09T02:35:59.887Z,4.57
2019-03-09T02:38:30.741Z,5.07
2019-03-09T02:40:59.937Z,5.17
2019-03-09T02:43:29.154Z,5.43
2019-03-09T02:45:58.519Z,6.40
2019-03-09T02:48:27.722Z,7.20
2019-03-09T02:50:56.916Z,5.97
2019-03-09T02:53:26.664Z,6.90
2019-03-09T02:55:55.841Z,5.00
2019-03-09T02:58:25.020Z,3.60
2019-03-09T03:01:12.256Z,6.63
2019-03-09T03:03:41.457Z,5.53
2019-03-09T03:06:10.621Z,6.53
2019-03-09T03:08:39.818Z,7.50
2019-03-09T03:11:09.009Z,3.97
2019-03-09T03:13:38.195Z,5.90
2019-03-09T03:16:07.403Z,5.60
2019-03-09T03:18:36.631Z,6.40
2019-03-09T03:21:05.827Z,5.60
2019-03-09T03:23:34.994Z,6.57
2019-03-09T03:26:04.195Z,7.40
2019-03-09T03:28:33.375Z,5.97
2019-03-09T03:31:02.634Z,7.60
2019-03-09T03:33:31.928Z,7.43
2019-03-09T03:36:01.105Z,4.13
2019-03-09T03:38:30.296Z,5.80
2019-03-09T03:40:59.520Z,6.10
2019-03-09T03:43:28.709Z,3.73
2019-03-09T03:45:57.924Z,5.40
2019-03-09T03:48:27.089Z,7.27
2019-03-09T03:50:56.287Z,6.73
2019-03-09T03:53:25.472Z,3.47
2019-03-09T03:55:54.667Z,8.40
2019-03-09T03:58:23.855Z,3.47
2019-03-09T04:00:53.102Z,2.87
2019-03-09T04:03:22.272Z,4.10
2019-03-09T04:05:51.488Z,4.50
2019-03-09T04:08:20.672Z,4.60
2019-03-09T04:10:49.869Z,7.03
2019-03-09T04:13:19.044Z,3.43
2019-03-09T04:15:48.241Z,2.83
2019-03-09T04:18:17.417Z,1.47
2019-03-09T04:20:46.622Z,3.20
2019-03-09T04:23:15.803Z,3.67
2019-03-09T04:25:44.998Z,3.67
2019-03-09T04:28:14.253Z,3.40
2019-03-09T04:30:43.452Z,2.00
2019-03-09T04:33:12.655Z,4.47
2019-03-09T04:35:41.853Z,5.07
2019-03-09T04:38:11.028Z,2.07
2019-03-09T04:40:40.258Z,3.53
2019-03-09T04:43:09.431Z,2.53
2019-03-09T04:45:38.634Z,1.83
2019-03-09T04:48:07.808Z,2.37
2019-03-09T04:50:37.011Z,1.67
2019-03-09T04:53:06.211Z,1.50
2019-03-09T04:55:35.404Z,2.23
2019-03-09T04:58:04.590Z,1.57
2019-03-09T05:00:33.780Z,0.80
2019-03-09T05:03:02.957Z,1.33
2019-03-09T05:05:32.150Z,4.27
2019-03-09T05:08:04.592Z,2.63
2019-03-09T05:10:37.579Z,2.87
2019-03-09T05:13:09.900Z,1.00
2019-03-09T05:15:39.103Z,1.90
2019-03-09T05:18:08.339Z,1.40
2019-03-09T05:20:37.560Z,1.00
2019-03-09T05:23:06.740Z,1.27
2019-03-09T05:25:35.946Z,0.50
2019-03-09T05:28:05.120Z,1.10
2019-03-09T05:30:48.056Z,0.90
2019-03-09T05:33:17.245Z,1.53
2019-03-09T05:35:46.479Z,1.93
2019-03-09T05:38:15.670Z,0.97
2019-03-09T05:40:44.867Z,2.53
2019-03-09T05:43:14.049Z,1.00
2019-03-09T05:45:43.267Z,1.20
2019-03-09T05:48:12.431Z,1.40
2019-03-09T05:50:41.619Z,0.60
2019-03-09T05:53:13.590Z,1.40
2019-03-09T05:55:42.795Z,0.57
2019-03-09T05:58:11.981Z,0.70
2019-03-09T06:00:41.645Z,1.03
2019-03-09T06:03:10.895Z,1.00
2019-03-09T06:05:42.142Z,1.50
2019-03-09T06:08:11.326Z,1.30
2019-03-09T06:10:40.533Z,1.00
2019-03-09T06:13:09.701Z,1.00
2019-03-09T06:15:38.903Z,1.13
2019-03-09T06:18:08.078Z,1.07
2019-03-09T06:20:37.273Z,3.20
2019-03-09T06:23:06.469Z,0.83
2019-03-09T06:25:35.737Z,0.93
2019-03-09T06:28:05.013Z,1.97
2019-03-09T06:30:34.204Z,1.40
2019-03-09T06:33:23.402Z,0.80
2019-03-09T06:36:04.784Z,1.63
2019-03-09T06:38:42.678Z,0.93
2019-03-09T06:41:30.293Z,1.27
2019-03-09T06:43:59.468Z,0.93
2019-03-09T06:46:28.662Z,1.07
2019-03-09T06:48:57.846Z,1.20
2019-03-09T06:51:27.040Z,1.60
2019-03-09T06:53:56.236Z,2.23
2019-03-09T06:56:25.436Z,1.63
2019-03-09T06:58:54.665Z,1.80
2019-03-09T07:01:23.895Z,2.73
2019-03-09T07:03:53.060Z,1.80
2019-03-09T07:06:22.262Z,2.37
2019-03-09T07:08:51.460Z,2.03
2019-03-09T07:11:20.689Z,1.87
2019-03-09T07:13:53.075Z,1.30
2019-03-09T07:16:20.763Z,1.60
2019-03-09T07:18:49.933Z,1.67
2019-03-09T07:21:19.132Z,1.77
2019-03-09T07:23:48.307Z,1.40
2019-03-09T07:26:17.600Z,1.57
2019-03-09T07:28:46.800Z,1.27
2019-03-09T07:31:15.998Z,2.50
2019-03-09T07:33:45.179Z,2.27
2019-03-09T07:36:14.363Z,2.97
2019-03-09T07:38:43.556Z,1.27
2019-03-09T07:41:12.755Z,1.07
2019-03-09T07:43:41.963Z,1.60
2019-03-09T07:46:11.152Z,2.13
2019-03-09T07:48:41.001Z,3.63
2019-03-09T07:51:10.222Z,1.93
2019-03-09T07:53:39.445Z,2.47
2019-03-09T07:56:08.609Z,2.03
2019-03-09T07:58:37.805Z,1.77
2019-03-09T08:01:07.069Z,1.57
2019-03-09T08:03:36.267Z,1.80
2019-03-09T08:06:05.453Z,1.43
2019-03-09T08:08:34.660Z,2.67
2019-03-09T08:11:03.849Z,3.97
2019-03-09T08:13:33.073Z,2.20
2019-03-09T08:16:02.268Z,1.97
2019-03-09T08:18:31.463Z,2.70
2019-03-09T08:21:00.752Z,2.20
2019-03-09T08:23:29.954Z,1.73
2019-03-09T08:25:59.158Z,1.90
2019-03-09T08:28:28.359Z,1.63
2019-03-09T08:30:57.545Z,1.40
2019-03-09T08:33:26.786Z,1.90
2019-03-09T08:35:59.298Z,1.53
2019-03-09T08:38:27.633Z,2.50
2019-03-09T08:40:57.035Z,1.83
2019-03-09T08:43:26.234Z,1.67
2019-03-09T08:45:55.508Z,2.97
2019-03-09T08:48:24.711Z,3.10
2019-03-09T08:50:53.984Z,2.77
2019-03-09T08:53:23.194Z,2.70
2019-03-09T08:55:52.351Z,2.37
2019-03-09T08:58:21.548Z,2.33
2019-03-09T09:00:50.953Z,2.00
2019-03-09T09:03:20.150Z,1.50
2019-03-09T09:05:49.325Z,1.63
2019-03-09T09:08:18.544Z,1.33
2019-03-09T09:10:47.729Z,1.27
2019-03-09T09:13:16.952Z,1.63
2019-03-09T09:15:46.144Z,1.70
2019-03-09T09:18:15.342Z,1.00
2019-03-09T09:20:44.555Z,2.50
2019-03-09T09:23:13.754Z,1.57
2019-03-09T09:25:42.955Z,1.63
2019-03-09T09:28:12.165Z,1.50
2019-03-09T09:30:41.511Z,2.10
2019-03-09T09:33:10.703Z,1.73
2019-03-09T09:35:39.885Z,1.90
2019-03-09T09:38:09.093Z,1.40
2019-03-09T09:40:43.293Z,1.30
2019-03-09T09:43:12.501Z,2.10
2019-03-09T09:45:41.685Z,1.37
2019-03-09T09:48:11.056Z,1.97
2019-03-09T09:50:40.264Z,1.30
2019-03-09T09:53:09.478Z,1.63
2019-03-09T09:55:38.689Z,1.20
2019-03-09T09:58:07.899Z,1.00
2019-03-09T10:00:37.089Z,0.93
2019-03-09T10:03:06.286Z,1.17
2019-03-09T10:05:35.487Z,1.47
2019-03-09T10:08:04.665Z,2.37
2019-03-09T10:10:33.896Z,1.43
2019-03-09T10:13:03.136Z,1.13
2019-03-09T10:15:33.276Z,1.43
2019-03-09T10:18:02.452Z,1.77
2019-03-09T10:20:31.665Z,2.53
2019-03-09T10:23:04.670Z,1.87
2019-03-09T10:25:31.743Z,1.20
2019-03-09T10:28:00.940Z,1.60
2019-03-09T10:30:30.134Z,2.00
2019-03-09T10:32:59.384Z,2.37
2019-03-09T10:35:28.690Z,1.00
2019-03-09T10:37:57.872Z,2.13
2019-03-09T10:40:27.082Z,2.43
2019-03-09T10:42:56.267Z,4.43
2019-03-09T10:45:25.471Z,1.37
2019-03-09T10:47:54.656Z,1.20
2019-03-09T10:50:25.905Z,1.43
2019-03-09T10:52:54.826Z,1.40
2019-03-09T10:55:34.099Z,0.60
2019-03-09T10:58:03.385Z,0.70
2019-03-09T11:00:37.047Z,0.40
2019-03-09T11:03:06.236Z,0.90
2019-03-09T11:05:35.443Z,0.87
2019-03-09T11:08:04.810Z,0.80
2019-03-09T11:10:34.019Z,0.70
2019-03-09T11:13:03.218Z,0.77
2019-03-09T11:15:32.414Z,0.87
2019-03-09T11:18:01.617Z,0.50
2019-03-09T11:20:30.812Z,0.63
2019-03-09T11:23:00.010Z,1.70
2019-03-09T11:25:29.231Z,2.00
2019-03-09T11:28:06.767Z,1.83
2019-03-09T11:30:35.962Z,2.23
2019-03-09T11:33:05.206Z,2.00
2019-03-09T11:35:34.421Z,1.13
2019-03-09T11:38:03.692Z,1.00
2019-03-09T11:40:32.912Z,1.17
2019-03-09T11:43:02.202Z,0.60
2019-03-09T11:45:31.408Z,1.23
2019-03-09T11:48:00.601Z,1.83
2019-03-09T11:50:29.818Z,0.80
2019-03-09T11:52:59.084Z,1.17
2019-03-09T11:55:28.286Z,2.73
2019-03-09T11:57:57.477Z,2.53
2019-03-09T12:00:34.354Z,4.13
2019-03-09T12:03:03.530Z,1.33
2019-03-09T12:05:32.748Z,2.27
2019-03-09T12:08:01.960Z,2.27
2019-03-09T12:10:31.168Z,2.13
2019-03-09T12:13:00.357Z,1.80
2019-03-09T12:15:29.566Z,1.70
2019-03-09T12:17:58.751Z,2.00
2019-03-09T12:20:29.601Z,2.30
2019-03-09T12:23:18.853Z,2.93
2019-03-09T12:25:48.046Z,3.70
2019-03-09T12:28:17.342Z,3.10
2019-03-09T12:30:46.564Z,3.60
2019-03-09T12:33:15.747Z,2.77
2019-03-09T12:35:45.062Z,2.87
2019-03-09T12:38:14.341Z,2.23
2019-03-09T12:40:43.556Z,3.37
2019-03-09T12:43:12.741Z,2.27
2019-03-09T12:45:41.948Z,2.60
2019-03-09T12:48:11.157Z,3.93
2019-03-09T12:50:40.319Z,3.50
2019-03-09T12:53:09.509Z,2.53
2019-03-09T12:55:38.727Z,2.10
2019-03-09T12:58:07.924Z,2.37
2019-03-09T13:00:37.122Z,2.40
2019-03-09T13:03:06.319Z,1.83
2019-03-09T13:05:35.539Z,2.20
2019-03-09T13:08:04.802Z,3.27
2019-03-09T13:10:34.017Z,3.33
2019-03-09T13:13:03.211Z,2.50
2019-03-09T13:15:32.515Z,3.20
2019-03-09T13:18:01.813Z,4.23
2019-03-09T13:20:31.014Z,1.60
2019-03-09T13:23:00.285Z,1.87
2019-03-09T13:25:29.493Z,0.90
2019-03-09T13:27:58.683Z,3.27
2019-03-09T13:30:27.902Z,1.00
2019-03-09T13:32:57.106Z,2.60
2019-03-09T13:35:26.401Z,2.57
2019-03-09T13:37:55.612Z,2.00
2019-03-09T13:40:24.798Z,1.37
2019-03-09T13:42:53.996Z,0.57
2019-03-09T13:45:23.166Z,0.90
2019-03-09T13:47:52.393Z,1.50
2019-03-09T13:50:21.568Z,0.83
2019-03-09T13:52:50.767Z,1.00
2019-03-09T13:55:19.946Z,1.50
2019-03-09T13:57:49.147Z,2.00
2019-03-09T14:00:21.311Z,1.13
2019-03-09T14:02:50.532Z,1.70
2019-03-09T14:05:19.741Z,1.10
2019-03-09T14:07:48.948Z,2.13
2019-03-09T14:10:18.224Z,3.07
2019-03-09T14:12:47.438Z,1.60
2019-03-09T14:15:19.389Z,1.20
2019-03-09T14:17:48.614Z,1.83
2019-03-09T14:20:17.769Z,1.43
2019-03-09T14:22:46.990Z,2.20
2019-03-09T14:25:16.165Z,1.57
2019-03-09T14:27:45.375Z,2.20
2019-03-09T14:30:18.421Z,2.97
2019-03-09T14:32:47.642Z,3.50
2019-03-09T14:35:16.869Z,2.60
2019-03-09T14:37:46.069Z,2.73
2019-03-09T14:40:15.993Z,2.90
2019-03-09T14:42:45.209Z,4.00
2019-03-09T14:45:18.673Z,2.17
2019-03-09T14:47:47.895Z,2.60
2019-03-09T14:50:18.702Z,3.93
2019-03-09T14:52:47.909Z,1.87
2019-03-09T14:55:17.193Z,2.07
2019-03-09T14:57:46.405Z,2.93
2019-03-09T15:00:24.026Z,2.57
2019-03-09T15:02:53.231Z,2.73
2019-03-09T15:05:22.430Z,2.17
2019-03-09T15:07:51.641Z,4.50
2019-03-09T15:10:20.850Z,2.33
2019-03-09T15:12:50.054Z,5.03
2019-03-09T15:15:20.976Z,3.90
2019-03-09T15:17:50.233Z,3.60
2019-03-09T15:20:19.408Z,2.40
2019-03-09T15:22:48.609Z,2.67
2019-03-09T15:25:19.611Z,3.37
2019-03-09T15:27:48.840Z,5.33
2019-03-09T15:30:20.314Z,5.67
2019-03-09T15:32:49.526Z,3.17
2019-03-09T15:35:18.718Z,3.10
2019-03-09T15:37:47.916Z,4.97
2019-03-09T15:40:19.110Z,4.30
2019-03-09T15:42:48.319Z,4.87
2019-03-09T15:45:19.613Z,5.63
2019-03-09T15:47:48.881Z,5.03
2019-03-09T15:50:19.409Z,5.13
2019-03-09T15:52:48.612Z,5.80
2019-03-09T15:55:17.817Z,3.37
2019-03-09T15:57:47.016Z,5.87
2019-03-09T16:00:19.919Z,6.20
2019-03-09T16:02:49.289Z,6.80
2019-03-09T16:05:18.476Z,4.70
2019-03-09T16:07:47.767Z,6.30
2019-03-09T16:10:21.271Z,6.37
2019-03-09T16:12:50.558Z,4.50
2019-03-09T16:15:19.740Z,6.57
2019-03-09T16:17:48.932Z,7.93
2019-03-09T16:20:29.121Z,6.73
2019-03-09T16:22:58.338Z,5.47
2019-03-09T16:25:29.013Z,8.10
2019-03-09T16:27:58.417Z,10.17
2019-03-09T16:30:27.640Z,8.83
2019-03-09T16:32:56.877Z,10.23
2019-03-09T16:35:26.374Z,5.63
2019-03-09T16:37:55.545Z,8.07
2019-03-09T16:40:27.409Z,6.53
2019-03-09T16:42:56.616Z,6.10
2019-03-09T16:45:25.819Z,6.30
2019-03-09T16:47:55.020Z,7.80
2019-03-09T16:50:24.296Z,9.77
2019-03-09T16:52:53.532Z,8.80
2019-03-09T16:55:22.717Z,10.87
2019-03-09T16:57:51.916Z,8.47
2019-03-09T17:00:23.315Z,5.80
2019-03-09T17:03:00.143Z,8.37
2019-03-09T17:05:29.337Z,6.57
2019-03-09T17:07:58.639Z,7.03
2019-03-09T17:10:27.825Z,9.53
2019-03-09T17:12:58.665Z,8.27
2019-03-09T17:15:27.867Z,10.20
2019-03-09T17:17:57.099Z,9.03
2019-03-09T17:20:26.291Z,10.20
2019-03-09T17:22:55.582Z,12.17
2019-03-09T17:25:24.801Z,10.63
2019-03-09T17:27:54.084Z,9.50
2019-03-09T17:30:23.261Z,9.70
2019-03-09T17:32:52.444Z,17.00
2019-03-09T17:35:21.755Z,13.40
2019-03-09T17:37:50.959Z,15.73
2019-03-09T17:40:20.230Z,13.70
2019-03-09T17:42:49.436Z,13.83
2019-03-09T17:45:22.928Z,15.73
2019-03-09T17:47:52.139Z,12.70
2019-03-09T17:50:21.333Z,9.03
2019-03-09T17:52:50.536Z,12.27
2019-03-09T17:55:19.727Z,13.70
2019-03-09T17:57:48.930Z,12.97
2019-03-09T18:00:23.732Z,18.83
2019-03-09T18:02:52.943Z,13.37
2019-03-09T18:05:22.145Z,17.13
2019-03-09T18:07:51.448Z,15.27
2019-03-09T18:10:26.668Z,17.40
2019-03-09T18:12:55.875Z,16.00
2019-03-09T18:15:25.058Z,13.07
2019-03-09T18:17:54.293Z,14.27
2019-03-09T18:20:23.494Z,14.80
2019-03-09T18:22:52.699Z,16.67
2019-03-09T18:25:21.958Z,16.03
2019-03-09T18:27:51.223Z,15.30
2019-03-09T18:30:20.464Z,17.57
2019-03-09T18:32:49.852Z,13.40
2019-03-09T18:35:19.056Z,17.30
2019-03-09T18:37:48.539Z,12.60
2019-03-09T18:40:17.917Z,16.60
2019-03-09T18:42:47.104Z,14.43
2019-03-09T18:45:18.596Z,16.33
2019-03-09T18:47:47.952Z,12.70
2019-03-09T18:50:17.145Z,16.00
2019-03-09T18:52:46.630Z,16.30
2019-03-09T18:55:15.823Z,13.47
2019-03-09T18:57:45.015Z,14.53
2019-03-09T19:00:19.627Z,15.83
2019-03-09T19:02:48.826Z,18.27
2019-03-09T19:05:18.061Z,13.40
2019-03-09T19:07:47.267Z,17.90
2019-03-09T19:10:17.990Z,17.97
2019-03-09T19:12:47.193Z,17.63
2019-03-09T19:15:17.649Z,16.37
2019-03-09T19:17:46.840Z,17.23
2019-03-09T19:20:17.093Z,14.63
2019-03-09T19:22:46.606Z,16.33
2019-03-09T19:25:16.080Z,16.33
2019-03-09T19:27:45.267Z,18.80
2019-03-09T19:30:18.959Z,18.30
2019-03-09T19:32:48.149Z,18.27
2019-03-09T19:35:17.362Z,20.17
2019-03-09T19:37:46.551Z,16.37
2019-03-09T19:40:19.414Z,16.07
2019-03-09T19:42:48.698Z,18.47
2019-03-09T19:45:22.545Z,16.17
2019-03-09T19:47:53.645Z,14.90
2019-03-09T19:50:26.924Z,20.60
2019-03-09T19:52:56.130Z,18.40
2019-03-09T19:55:25.359Z,18.70
2019-03-09T19:57:54.559Z,20.50
2019-03-09T20:00:23.758Z,21.17
2019-03-09T20:02:52.959Z,20.67
2019-03-09T20:05:22.178Z,16.77
2019-03-09T20:07:51.384Z,19.50
2019-03-09T20:10:22.781Z,17.67
2019-03-09T20:12:51.987Z,22.77
2019-03-09T20:15:21.347Z,15.37
2019-03-09T20:17:50.549Z,16.50
2019-03-09T20:20:19.996Z,14.80
2019-03-09T20:22:49.182Z,17.43
2019-03-09T20:25:18.411Z,14.20
2019-03-09T20:27:47.599Z,19.80
2019-03-09T20:30:17.660Z,14.57
2019-03-09T20:32:46.858Z,20.17
2019-03-09T20:35:16.120Z,17.70
2019-03-09T20:37:45.355Z,18.03
2019-03-09T20:40:18.170Z,21.13
2019-03-09T20:42:47.353Z,14.27
2019-03-09T20:45:18.654Z,15.33
2019-03-09T20:47:47.857Z,17.30
2019-03-09T20:50:18.635Z,18.23
2019-03-09T20:52:47.824Z,12.63
2019-03-09T20:55:17.053Z,16.47
2019-03-09T20:57:46.263Z,15.03
2019-03-09T21:00:17.019Z,17.37
2019-03-09T21:02:46.256Z,16.60
2019-03-09T21:05:15.463Z,15.30
2019-03-09T21:07:44.666Z,16.40
2019-03-09T21:10:19.000Z,13.13
2019-03-09T21:13:08.540Z,21.60
2019-03-09T21:15:37.739Z,17.33
2019-03-09T21:18:06.919Z,18.07
2019-03-09T21:20:36.147Z,14.00
2019-03-09T21:23:05.337Z,13.77
2019-03-09T21:25:34.552Z,18.60
2019-03-09T21:28:03.837Z,20.27
2019-03-09T21:30:33.065Z,14.67
2019-03-09T21:33:02.355Z,13.97
2019-03-09T21:35:31.557Z,11.70
2019-03-09T21:38:00.789Z,13.03
2019-03-09T21:40:30.003Z,14.90
2019-03-09T21:42:59.200Z,13.80
2019-03-09T21:45:28.401Z,13.17
2019-03-09T21:47:57.609Z,20.67
2019-03-09T21:50:26.907Z,13.17
2019-03-09T21:53:00.326Z,15.13
2019-03-09T21:55:29.547Z,17.73
2019-03-09T21:57:59.053Z,19.13
2019-03-09T22:00:28.259Z,14.03
2019-03-09T22:02:57.470Z,15.23
2019-03-09T22:05:26.716Z,13.43
2019-03-09T22:07:56.106Z,16.60
2019-03-09T22:10:27.069Z,12.90
2019-03-09T22:12:56.324Z,13.97
2019-03-09T22:15:25.534Z,16.27
2019-03-09T22:17:54.913Z,14.67
2019-03-09T22:20:24.219Z,12.47
2019-03-09T22:22:53.416Z,14.13
2019-03-09T22:25:22.627Z,13.73
2019-03-09T22:27:51.828Z,13.70
2019-03-09T22:30:22.292Z,14.57
2019-03-09T22:32:51.499Z,13.07
2019-03-09T22:35:20.702Z,14.60
2019-03-09T22:37:49.902Z,11.27
2019-03-09T22:40:19.965Z,11.20
2019-03-09T22:42:49.151Z,15.17
2019-03-09T22:45:18.369Z,12.60
2019-03-09T22:47:47.563Z,9.33
2019-03-09T22:50:22.670Z,10.50
2019-03-09T22:52:51.850Z,16.30
2019-03-09T22:55:21.042Z,16.70
2019-03-09T22:57:50.291Z,10.27
2019-03-09T23:00:27.620Z,11.13
2019-03-09T23:02:56.884Z,13.70
2019-03-09T23:05:26.074Z,13.17
2019-03-09T23:07:55.277Z,12.37
2019-03-09T23:10:25.916Z,12.23
2019-03-09T23:12:55.129Z,8.97
2019-03-09T23:15:24.407Z,11.70
2019-03-09T23:17:53.625Z,15.20
2019-03-09T23:20:22.909Z,11.33
2019-03-09T23:22:52.118Z,13.83
2019-03-09T23:25:21.404Z,12.37
2019-03-09T23:27:50.675Z,11.27
2019-03-09T23:30:21.852Z,12.87
2019-03-09T23:32:51.065Z,13.77
2019-03-09T23:35:20.959Z,13.13
2019-03-09T23:37:50.332Z,13.57
2019-03-09T23:40:20.377Z,11.00
2019-03-09T23:42:49.643Z,12.33
2019-03-09T23:45:22.170Z,13.27
2019-03-09T23:47:51.473Z,14.60
2019-03-09T23:50:20.678Z,11.90
2019-03-09T23:52:49.887Z,12.17
2019-03-09T23:55:22.568Z,11.53
2019-03-09T23:57:50.049Z,11.97
